Time;durP1;ratioP1;P1;durP2;ratioP2;P2;SDS_P1;SDS_P2;PMS_P1;PMS_P2;Temp;Humidity;BMP_temperature;BMP_pressure;BME280_temperature;BME280_humidity;BME280_pressure;Samples;Min_cycle;Max_cycle;Signal;HPM_P1;HPM_P2
2022/08/18 00:01:21;;;;;;;;;;;;;;;18.67;100.00;101402.78;5115346;28;19935;-34
2022/08/18 00:03:49;;;;;;;;;;;;;;;18.67;100.00;101414.09;5115425;28;20434;-34
2022/08/18 00:06:26;;;;;;;;;;;;;;;18.66;100.00;101408.78;5115612;28;19989;-33
2022/08/18 00:08:56;;;;;;;;;;;;;;;18.66;100.00;101412.44;5115571;28;19930;-32
2022/08/18 00:11:23;;;;;;;;;;;;;;;18.66;100.00;101418.09;5115634;28;19923;-32
2022/08/18 00:13:51;;;;;;;;;;;;;;;18.65;100.00;101412.78;5114762;27;19938;-39
2022/08/18 00:16:20;;;;;;;;;;;;;;;18.68;100.00;101412.94;5113893;28;19928;-35
2022/08/18 00:18:48;;;;;;;;;;;;;;;18.68;100.00;101412.09;5115530;28;20285;-34
2022/08/18 00:21:15;;;;;;;;;;;;;;;18.68;100.00;101420.56;5114346;28;19931;-32
2022/08/18 00:23:43;;;;;;;;;;;;;;;18.70;100.00;101418.25;5115698;28;19927;-33
2022/08/18 00:26:11;;;;;;;;;;;;;;;18.71;100.00;101426.38;5115003;28;19932;-33
2022/08/18 00:28:38;;;;;;;;;;;;;;;18.72;100.00;101425.22;5094655;28;19924;-33
2022/08/18 00:31:06;;;;;;;;;;;;;;;18.73;100.00;101417.56;5109632;28;19951;-34
2022/08/18 00:33:35;;;;;;;;;;;;;;;18.73;100.00;101418.41;5114600;28;20368;-37
2022/08/18 00:36:02;;;;;;;;;;;;;;;18.75;100.00;101416.06;5114635;28;19928;-38
2022/08/18 00:38:30;;;;;;;;;;;;;;;18.76;100.00;101414.88;5115218;28;19927;-33
2022/08/18 00:40:57;;;;;;;;;;;;;;;18.76;100.00;101414.88;5114298;28;19948;-33
2022/08/18 00:43:31;;;;;;;;;;;;;;;18.78;100.00;101404.06;5115038;28;19928;-41
2022/08/18 00:45:59;;;;;;;;;;;;;;;18.80;100.00;101410.19;5114858;28;19924;-33
2022/08/18 00:48:28;;;;;;;;;;;;;;;18.80;100.00;101407.34;5114194;28;19930;-34
2022/08/18 00:50:59;;;;;;;;;;;;;;;18.81;100.00;101409.00;5114616;28;19924;-39
2022/08/18 00:53:29;;;;;;;;;;;;;;;18.82;100.00;101409.84;5114998;28;19923;-38
2022/08/18 00:55:58;;;;;;;;;;;;;;;18.83;100.00;101400.19;5113552;28;20399;-39
2022/08/18 00:58:28;;;;;;;;;;;;;;;18.84;100.00;101399.03;5114858;28;19931;-35
2022/08/18 01:00:56;;;;;;;;;;;;;;;18.83;100.00;101394.53;5114629;28;19931;-32
2022/08/18 01:03:24;;;;;;;;;;;;;;;18.83;100.00;101401.03;5113854;28;19923;-32
2022/08/18 01:05:55;;;;;;;;;;;;;;;18.83;100.00;101405.84;5114191;28;20105;-36
2022/08/18 01:08:25;;;;;;;;;;;;;;;18.85;100.00;101397.84;5114026;28;20413;-40
2022/08/18 01:10:56;;;;;;;;;;;;;;;18.85;100.00;101412.81;5114155;28;19931;-36
2022/08/18 01:13:26;;;;;;;;;;;;;;;18.86;100.00;101406.00;5110392;28;20408;-32
2022/08/18 01:15:54;;;;;;;;;;;;;;;18.86;100.00;101402.34;5113715;28;19951;-41
2022/08/18 01:23:58;;;;;;;;;;;;;;;18.88;100.00;101402.84;5111907;28;19923;-40
2022/08/18 01:26:25;;;;;;;;;;;;;;;18.87;100.00;101399.19;5114135;28;19943;-35
2022/08/18 01:28:53;;;;;;;;;;;;;;;18.87;100.00;101387.88;5110515;27;19923;-40
2022/08/18 01:31:33;;;;;;;;;;;;;;;18.86;100.00;101397.50;5113240;28;20531;-40
2022/08/18 01:34:01;;;;;;;;;;;;;;;18.84;100.00;101397.03;5114075;28;19974;-38
2022/08/18 01:36:28;;;;;;;;;;;;;;;18.82;100.00;101405.03;5114136;28;19931;-33
2022/08/18 01:38:57;;;;;;;;;;;;;;;18.80;100.00;101398.88;5112954;28;19936;-35
2022/08/18 01:41:25;;;;;;;;;;;;;;;18.78;100.00;101394.75;5114048;28;20284;-33
2022/08/18 01:43:57;;;;;;;;;;;;;;;18.75;100.00;101401.91;5112711;28;19943;-35
2022/08/18 01:46:26;;;;;;;;;;;;;;;18.74;100.00;101402.25;5113878;28;20372;-33
2022/08/18 01:48:54;;;;;;;;;;;;;;;18.72;100.00;101405.44;5113657;28;19923;-32
2022/08/18 01:51:21;;;;;;;;;;;;;;;18.68;100.00;101395.97;5113221;28;19935;-33
2022/08/18 01:54:10;;;;;;;;;;;;;;;18.65;100.00;101393.81;5113407;28;19924;-33
2022/08/18 01:56:37;;;;;;;;;;;;;;;18.61;100.00;101392.84;5113180;28;19927;-33
2022/08/18 01:59:05;;;;;;;;;;;;;;;18.56;100.00;101378.88;5112797;28;19934;-32
2022/08/18 02:01:38;;;;;;;;;;;;;;;18.52;100.00;101387.22;5113539;28;19924;-33
2022/08/18 02:04:16;;;;;;;;;;;;;;;18.48;100.00;101385.41;5113370;28;19924;-34
2022/08/18 02:07:01;;;;;;;;;;;;;;;18.43;100.00;101379.94;5092280;28;19928;-38
2022/08/18 02:09:32;;;;;;;;;;;;;;;18.40;100.00;101386.25;5109091;28;19927;-35
2022/08/18 02:12:01;;;;;;;;;;;;;;;18.36;100.00;101380.47;5112731;28;19934;-39
2022/08/18 02:14:28;;;;;;;;;;;;;;;18.34;100.00;101384.81;5113136;28;19931;-39
2022/08/18 02:16:58;;;;;;;;;;;;;;;18.31;100.00;101374.19;5113385;28;19924;-32
2022/08/18 02:19:32;;;;;;;;;;;;;;;18.29;100.00;101371.69;5112105;28;19932;-33
2022/08/18 02:21:59;;;;;;;;;;;;;;;18.28;100.00;101375.69;5113385;28;19924;-32
2022/08/18 02:24:27;;;;;;;;;;;;;;;18.28;100.00;101366.38;5113458;28;19946;-32
2022/08/18 02:26:56;;;;;;;;;;;;;;;18.25;100.00;101360.22;5112406;28;19923;-40
2022/08/18 02:29:24;;;;;;;;;;;;;;;18.25;100.00;101363.06;5112755;28;20288;-41
2022/08/18 02:31:52;;;;;;;;;;;;;;;18.25;100.00;101362.22;5112763;28;20285;-32
2022/08/18 02:34:20;;;;;;;;;;;;;;;18.25;100.00;101360.22;5112180;28;19924;-36
2022/08/18 02:36:48;;;;;;;;;;;;;;;18.28;100.00;101360.72;5113173;28;19930;-41
2022/08/18 02:39:15;;;;;;;;;;;;;;;18.28;100.00;101363.53;5112832;28;19928;-32
2022/08/18 02:41:43;;;;;;;;;;;;;;;18.29;100.00;101359.56;5112324;28;19927;-33
2022/08/18 02:44:12;;;;;;;;;;;;;;;18.30;100.00;101369.69;5112467;28;19938;-41
2022/08/18 02:46:39;;;;;;;;;;;;;;;18.33;100.00;101369.00;5112924;28;20285;-37
2022/08/18 02:49:07;;;;;;;;;;;;;;;18.36;100.00;101377.66;5112189;28;19924;-44
2022/08/18 02:51:35;;;;;;;;;;;;;;;18.38;100.00;101386.63;5112753;28;19942;-34
2022/08/18 02:54:08;;;;;;;;;;;;;;;18.41;100.00;101390.75;5112097;28;19927;-33
2022/08/18 02:56:35;;;;;;;;;;;;;;;18.43;100.00;101392.06;5112600;28;19930;-43
2022/08/18 02:59:09;;;;;;;;;;;;;;;18.43;100.00;101392.06;5113195;28;19924;-32
2022/08/18 03:01:40;;;;;;;;;;;;;;;18.46;100.00;101397.03;5111694;28;20364;-41
2022/08/18 03:04:09;;;;;;;;;;;;;;;18.47;100.00;101392.22;5113158;28;19930;-32
2022/08/18 03:06:37;;;;;;;;;;;;;;;18.46;100.00;101384.91;5112352;28;19928;-31
2022/08/18 03:09:05;;;;;;;;;;;;;;;18.44;100.00;101393.72;5112726;28;20384;-35
2022/08/18 03:11:33;;;;;;;;;;;;;;;18.43;100.00;101392.06;5116342;28;19939;-31
2022/08/18 03:14:00;;;;;;;;;;;;;;;18.41;100.00;101385.09;5114686;28;19933;-31
2022/08/18 03:16:30;;;;;;;;;;;;;;;18.40;100.00;101391.91;5116161;28;19930;-40
2022/08/18 03:18:59;;;;;;;;;;;;;;;18.40;100.00;101400.38;5115040;28;19931;-36
2022/08/18 03:21:33;;;;;;;;;;;;;;;18.39;100.00;101395.91;5115232;28;20449;-32
2022/08/18 03:24:01;;;;;;;;;;;;;;;18.38;100.00;101386.63;5115349;28;19924;-33
2022/08/18 03:26:36;;;;;;;;;;;;;;;18.39;100.00;101390.25;5116127;28;20387;-39
2022/08/18 03:29:03;;;;;;;;;;;;;;;18.39;100.00;101391.06;5115849;28;20375;-32
2022/08/18 03:31:31;;;;;;;;;;;;;;;18.38;100.00;101392.28;5115608;28;19928;-32
2022/08/18 03:34:00;;;;;;;;;;;;;;;18.40;100.00;101394.72;5115091;28;20044;-39
2022/08/18 03:36:30;;;;;;;;;;;;;;;18.40;100.00;101397.56;5114608;28;19928;-32
2022/08/18 03:38:59;;;;;;;;;;;;;;;18.41;100.00;101402.03;5116492;28;19971;-33
2022/08/18 03:41:27;;;;;;;;;;;;;;;18.41;100.00;101399.22;5115650;28;20027;-32
2022/08/18 03:44:15;;;;;;;;;;;;;;;18.40;100.00;101400.38;5114771;28;19947;-33
2022/08/18 03:46:44;;;;;;;;;;;;;;;18.39;100.00;101402.38;5114844;28;19923;-33
2022/08/18 03:49:13;;;;;;;;;;;;;;;18.39;100.00;101410.84;5115399;28;19928;-33
2022/08/18 03:51:42;;;;;;;;;;;;;;;18.39;100.00;101413.69;5103006;28;19923;-31
2022/08/18 03:54:12;;;;;;;;;;;;;;;18.41;100.00;101419.81;5115150;28;19924;-34
2022/08/18 03:56:40;;;;;;;;;;;;;;;18.42;100.00;101423.47;5115501;28;20296;-33
2022/08/18 03:59:10;;;;;;;;;;;;;;;18.42;100.00;101429.13;5114793;28;19930;-40
2022/08/18 04:01:39;;;;;;;;;;;;;;;18.44;100.00;101423.97;5115575;28;19923;-31
2022/08/18 04:04:08;;;;;;;;;;;;;;;18.46;100.00;101432.94;5115795;28;20323;-31
2022/08/18 04:06:40;;;;;;;;;;;;;;;18.47;100.00;101429.78;5113847;28;19938;-31
2022/08/18 04:09:08;;;;;;;;;;;;;;;18.48;100.00;101436.28;5115578;28;19931;-38
2022/08/18 04:11:36;;;;;;;;;;;;;;;18.48;100.00;101424.97;5114362;28;19962;-31
2022/08/18 04:14:04;;;;;;;;;;;;;;;18.47;100.00;101426.97;5115610;28;19934;-32
2022/08/18 04:16:33;;;;;;;;;;;;;;;18.48;100.00;101431.44;5115457;28;19951;-39
2022/08/18 04:19:02;;;;;;;;;;;;;;;18.49;100.00;101426.63;5114695;28;20022;-33
2022/08/18 04:21:31;;;;;;;;;;;;;;;18.49;100.00;101429.44;5114702;28;19978;-40
2022/08/18 04:24:02;;;;;;;;;;;;;;;18.48;100.00;101430.63;5114891;28;19931;-34
2022/08/18 04:26:30;;;;;;;;;;;;;;;18.47;100.00;101431.78;5108031;28;19927;-36
2022/08/18 04:28:59;;;;;;;;;;;;;;;18.48;100.00;101439.09;5114589;28;20295;-39
2022/08/18 04:31:28;;;;;;;;;;;;;;;18.47;100.00;101440.25;5114994;28;19934;-33
2022/08/18 04:33:57;;;;;;;;;;;;;;;18.46;100.00;101439.44;5113775;28;20027;-34
2022/08/18 04:36:24;;;;;;;;;;;;;;;18.47;100.00;101440.25;5114596;28;19934;-32
2022/08/18 04:38:53;;;;;;;;;;;;;;;18.48;100.00;101439.09;5114589;28;20264;-37
2022/08/18 04:41:26;;;;;;;;;;;;;;;18.49;100.00;101440.75;5114133;28;20285;-31
2022/08/18 04:43:54;;;;;;;;;;;;;;;18.49;100.00;101449.22;5114793;28;19928;-34
2022/08/18 04:46:22;;;;;;;;;;;;;;;18.49;100.00;101447.22;5114571;28;19931;-40
2022/08/18 04:48:51;;;;;;;;;;;;;;;18.49;100.00;101452.06;5113345;28;20459;-37
2022/08/18 04:51:20;;;;;;;;;;;;;;;18.49;100.00;101443.59;5114315;28;19931;-36
2022/08/18 04:54:07;;;;;;;;;;;;;;;18.49;100.00;101452.88;5113805;28;19992;-35
2022/08/18 04:56:37;;;;;;;;;;;;;;;18.49;100.00;101449.22;5114624;28;19934;-31
2022/08/18 04:59:05;;;;;;;;;;;;;;;18.50;100.00;101448.06;5114614;28;20300;-38
2022/08/18 05:01:34;;;;;;;;;;;;;;;18.51;100.00;101449.72;5113754;28;19932;-32
2022/08/18 05:04:02;;;;;;;;;;;;;;;18.52;100.00;101451.38;5114386;28;19924;-39
2022/08/18 05:06:30;;;;;;;;;;;;;;;18.52;100.00;101449.38;5113091;28;19931;-31
2022/08/18 05:08:59;;;;;;;;;;;;;;;18.53;100.00;101448.22;5113547;28;19930;-31
2022/08/18 05:11:27;;;;;;;;;;;;;;;18.54;100.00;101449.06;5114271;28;19928;-31
2022/08/18 05:13:57;;;;;;;;;;;;;;;18.56;100.00;101456.03;5114038;28;20420;-37
2022/08/18 05:16:25;;;;;;;;;;;;;;;18.57;100.00;101454.03;5109864;28;20377;-37
2022/08/18 05:18:54;;;;;;;;;;;;;;;18.57;100.00;101446.38;5114311;28;19928;-33
2022/08/18 05:21:23;;;;;;;;;;;;;;;18.57;100.00;101449.22;5113478;28;19924;-41
2022/08/18 05:23:51;;;;;;;;;;;;;;;18.61;100.00;101457.84;5111940;28;20409;-31
2022/08/18 05:26:19;;;;;;;;;;;;;;;18.63;100.00;101454.69;5113459;28;19924;-39
2022/08/18 05:28:47;;;;;;;;;;;;;;;18.65;100.00;101452.34;5112982;28;19927;-41
2022/08/18 05:31:22;;;;;;;;;;;;;;;18.68;100.00;101443.19;5110237;28;19930;-31
2022/08/18 05:33:50;;;;;;;;;;;;;;;18.70;100.00;101447.34;5113752;28;20377;-36
2022/08/18 05:36:27;;;;;;;;;;;;;;;18.74;100.00;101445.50;5112727;28;19924;-31
2022/08/18 05:38:59;;;;;;;;;;;;;;;18.74;100.00;101437.03;5108169;28;19934;-31
2022/08/18 05:41:28;;;;;;;;;;;;;;;18.78;100.00;101440.84;5113616;28;19928;-42
2022/08/18 05:43:57;;;;;;;;;;;;;;;18.80;100.00;101434.81;5112770;28;19924;-33
2022/08/18 05:46:32;;;;;;;;;;;;;;;18.82;100.00;101443.78;5113399;28;19947;-31
2022/08/18 05:48:59;;;;;;;;;;;;;;;18.84;100.00;101436.63;5113662;28;19933;-40
2022/08/18 05:51:30;;;;;;;;;;;;;;;18.86;100.00;101439.09;5112423;28;19924;-38
2022/08/18 05:56:48;;;;;;;;;;;;;;;18.89;100.00;101436.44;5113670;28;19930;-31
2022/08/18 05:59:20;;;;;;;;;;;;;;;18.92;100.00;101441.41;5113310;28;20403;-33
2022/08/18 06:01:53;;;;;;;;;;;;;;;18.96;100.00;101443.56;5113196;28;19924;-32
2022/08/18 06:04:26;;;;;;;;;;;;;;;18.98;100.00;101446.88;5112404;28;19924;-32
2022/08/18 06:06:56;;;;;;;;;;;;;;;19.01;100.00;101449.00;5113149;27;19924;-37
2022/08/18 06:09:25;;;;;;;;;;;;;;;19.03;100.00;101455.97;5112937;28;19931;-38
2022/08/18 06:11:56;;;;;;;;;;;;;;;19.06;100.00;101460.94;5112388;28;20258;-33
2022/08/18 06:14:24;;;;;;;;;;;;;;;19.11;100.00;101457.09;5112878;28;20396;-31
2022/08/18 06:16:58;;;;;;;;;;;;;;;19.17;100.00;101461.41;5113036;28;19924;-42
2022/08/18 06:19:30;;;;;;;;;;;;;;;19.24;100.00;101461.66;5112292;28;19928;-32
2022/08/18 06:22:01;;;;;;;;;;;;;;;19.29;100.00;101458.63;5113022;28;19932;-35
2022/08/18 06:24:33;;;;;;;;;;;;;;;19.33;100.00;101459.63;5112844;28;19923;-32
2022/08/18 06:27:06;;;;;;;;;;;;;;;19.39;100.00;101471.53;5109914;28;20285;-32
2022/08/18 06:29:43;;;;;;;;;;;;;;;19.41;100.00;101467.19;5111935;28;19927;-31
2022/08/18 06:32:18;;;;;;;;;;;;;;;19.48;100.00;101461.81;5101201;28;20285;-39
2022/08/18 06:34:55;;;;;;;;;;;;;;;19.54;100.00;101462.50;5111598;28;19951;-35
2022/08/18 06:37:28;;;;;;;;;;;;;;;19.57;100.00;101473.97;5111493;28;19928;-31
2022/08/18 06:39:57;;;;;;;;;;;;;;;19.57;100.00;101476.78;5110542;28;19928;-42
2022/08/18 06:42:29;;;;;;;;;;;;;;;19.57;100.00;101475.97;5111586;28;19927;-38
2022/08/18 06:45:00;;;;;;;;;;;;;;;19.56;100.00;101480.78;5111432;28;20384;-31
2022/08/18 06:47:36;;;;;;;;;;;;;;;19.53;100.00;101475.81;5110652;28;19928;-36
2022/08/18 06:50:05;;;;;;;;;;;;;;;19.55;100.00;101479.13;5100879;28;19935;-39
2022/08/18 06:52:34;;;;;;;;;;;;;;;19.60;100.00;101475.25;5111216;28;19931;-31
2022/08/18 06:55:05;;;;;;;;;;;;;;;19.71;100.00;101482.16;5110498;28;20301;-31
2022/08/18 06:57:34;;;;;;;;;;;;;;;19.91;100.00;101477.66;5111367;28;19931;-33
2022/08/18 07:00:06;;;;;;;;;;;;;;;20.20;100.00;101483.19;5111354;28;19931;-41
2022/08/18 07:02:42;;;;;;;;;;;;;;;20.57;100.00;101478.47;5107203;28;19928;-41
2022/08/18 07:05:18;;;;;;;;;;;;;;;20.79;100.00;101485.69;5109180;28;19991;-34
2022/08/18 07:07:46;;;;;;;;;;;;;;;20.93;100.00;101482.53;5106895;28;19924;-31
2022/08/18 07:10:28;;;;;;;;;;;;;;;21.24;100.00;101484.78;5108152;28;19997;-35
2022/08/18 07:13:05;;;;;;;;;;;;;;;21.73;100.00;101482.69;5105563;28;19924;-32
2022/08/18 07:15:33;;;;;;;;;;;;;;;22.07;100.00;101486.94;5108449;28;19923;-32
2022/08/18 07:18:06;;;;;;;;;;;;;;;22.43;100.00;101477.41;5111395;28;19931;-37
2022/08/18 07:20:41;;;;;;;;;;;;;;;22.75;100.00;101483.13;5107588;28;19923;-35
2022/08/18 07:23:09;;;;;;;;;;;;;;;22.72;100.00;101476.16;5110444;28;19927;-39
2022/08/18 07:25:39;;;;;;;;;;;;;;;22.61;100.00;101472.19;5111578;28;19927;-31
2022/08/18 07:28:07;;;;;;;;;;;;;;;22.50;100.00;101471.91;5112159;28;19930;-35
2022/08/18 07:30:36;;;;;;;;;;;;;;;22.31;100.00;101471.78;5111564;28;19924;-40
2022/08/18 07:33:14;;;;;;;;;;;;;;;22.13;100.00;101476.16;5112499;28;19923;-40
2022/08/18 07:35:44;;;;;;;;;;;;;;;22.09;100.00;101483.75;5111066;28;20448;-37
2022/08/18 07:38:21;;;;;;;;;;;;;;;22.39;100.00;101485.00;5111907;28;19927;-31
2022/08/18 07:41:14;;;;;;;;;;;;;;;23.09;100.00;101487.25;5111581;28;19927;-33
2022/08/18 07:43:46;;;;;;;;;;;;;;;23.69;100.00;101492.38;5111651;28;19938;-31
2022/08/18 07:46:17;;;;;;;;;;;;;;;24.24;100.00;101493.16;5111828;28;19947;-37
2022/08/18 07:48:46;;;;;;;;;;;;;;;24.76;100.00;101494.56;5112356;28;19932;-31
2022/08/18 07:51:20;;;;;;;;;;;;;;;25.39;100.00;101491.09;5110889;28;19928;-34
2022/08/18 07:53:53;;;;;;;;;;;;;;;26.04;100.00;101505.13;5111768;28;20009;-35
2022/08/18 07:56:28;;;;;;;;;;;;;;;26.51;100.00;101501.63;5114098;28;19927;-39
2022/08/18 07:58:58;;;;;;;;;;;;;;;26.84;100.00;101508.47;5115553;28;19932;-33
2022/08/18 08:01:33;;;;;;;;;;;;;;;27.12;100.00;101508.78;5115496;28;20384;-40
2022/08/18 08:04:10;;;;;;;;;;;;;;;27.52;100.00;101504.16;5114850;28;19923;-33
2022/08/18 08:06:55;;;;;;;;;;;;;;;27.56;96.11;101505.81;5115288;28;19923;-33
2022/08/18 08:09:48;;;;;;;;;;;;;;;27.39;95.85;101513.06;5115480;28;20295;-32
2022/08/18 08:12:23;;;;;;;;;;;;;;;27.38;97.28;101516.31;5110590;28;19924;-34
2022/08/18 08:14:59;;;;;;;;;;;;;;;27.38;97.07;101505.69;5113951;28;20281;-33
2022/08/18 08:17:31;;;;;;;;;;;;;;;27.47;96.57;101513.94;5111660;28;19979;-33
2022/08/18 08:20:14;;;;;;;;;;;;;;;27.60;93.46;101508.72;5114812;28;19970;-40
2022/08/18 08:22:49;;;;;;;;;;;;;;;27.76;96.31;101509.25;5112529;28;19938;-33
2022/08/18 08:25:20;;;;;;;;;;;;;;;28.13;94.59;101501.22;5113873;28;19923;-33
2022/08/18 08:28:15;;;;;;;;;;;;;;;28.62;93.38;101504.66;5115156;28;19932;-38
2022/08/18 08:30:46;;;;;;;;;;;;;;;29.04;90.59;101507.59;5115135;28;19923;-31
2022/08/18 08:33:20;;;;;;;;;;;;;;;29.30;83.13;101506.38;5114335;28;20388;-41
2022/08/18 08:35:52;;;;;;;;;;;;;;;29.36;83.60;101498.16;5112337;28;19928;-32
2022/08/18 08:38:22;;;;;;;;;;;;;;;29.46;78.42;101495.28;5114855;28;19924;-33
2022/08/18 08:41:12;;;;;;;;;;;;;;;29.33;79.08;101496.09;5113714;28;19923;-40
2022/08/18 08:43:42;;;;;;;;;;;;;;;29.40;77.86;101498.97;5114938;28;19931;-31
2022/08/18 08:46:12;;;;;;;;;;;;;;;29.60;79.92;101491.53;5113912;28;19932;-31
2022/08/18 08:48:42;;;;;;;;;;;;;;;29.65;76.22;101501.81;5115080;28;19931;-38
2022/08/18 08:51:17;;;;;;;;;;;;;;;29.65;77.96;101502.63;5114872;28;19935;-32
2022/08/18 08:53:47;;;;;;;;;;;;;;;29.81;78.92;101508.75;5111284;28;19928;-31
2022/08/18 08:56:16;;;;;;;;;;;;;;;30.08;77.45;101511.16;5113088;28;19928;-31
2022/08/18 08:58:48;;;;;;;;;;;;;;;30.38;78.52;101508.53;5114550;28;19937;-41
2022/08/18 09:01:23;;;;;;;;;;;;;;;30.59;67.53;101504.72;5113968;28;19931;-32
2022/08/18 09:03:56;;;;;;;;;;;;;;;30.79;71.59;101502.94;5113381;28;19985;-36
2022/08/18 09:06:31;;;;;;;;;;;;;;;30.98;69.35;101500.75;5114460;28;19923;-32
2022/08/18 09:09:08;;;;;;;;;;;;;;;31.10;70.02;101503.94;5113086;28;20303;-36
2022/08/18 09:11:49;;;;;;;;;;;;;;;31.21;64.15;101509.63;5114192;28;19923;-32
2022/08/18 09:14:31;;;;;;;;;;;;;;;31.13;63.88;101510.97;5113076;28;20404;-32
2022/08/18 09:17:11;;;;;;;;;;;;;;;31.17;62.25;101514.66;5111479;28;19975;-40
2022/08/18 09:19:47;;;;;;;;;;;;;;;31.30;63.14;101509.97;5111471;27;20304;-32
2022/08/18 09:22:25;;;;;;;;;;;;;;;31.41;63.00;101512.75;5109205;28;19924;-32
2022/08/18 09:24:54;;;;;;;;;;;;;;;31.27;62.05;101512.88;5113674;28;19931;-40
2022/08/18 09:27:30;;;;;;;;;;;;;;;31.23;62.93;101514.97;5113268;28;19931;-33
2022/08/18 09:30:33;;;;;;;;;;;;;;;31.35;65.27;101520.25;5113703;28;20374;-41
2022/08/18 09:33:13;;;;;;;;;;;;;;;31.68;65.64;101516.63;5113530;28;20292;-34
2022/08/18 09:35:56;;;;;;;;;;;;;;;31.90;59.62;101516.38;5103825;28;20392;-32
2022/08/18 09:41:33;;;;;;;;;;;;;;;31.68;60.63;101516.63;5113438;28;19947;-33
2022/08/18 09:44:11;;;;;;;;;;;;;;;31.64;59.93;101515.00;5112216;28;19923;-32
2022/08/18 09:46:55;;;;;;;;;;;;;;;31.22;57.61;101519.94;5112800;28;19924;-35
2022/08/18 09:49:41;;;;;;;;;;;;;;;31.27;63.72;101507.13;5112505;28;19927;-38
2022/08/18 09:52:33;;;;;;;;;;;;;;;31.57;60.70;101510.13;5111687;28;20014;-34
2022/08/18 09:55:26;;;;;;;;;;;;;;;31.75;56.68;101505.00;5109284;28;19927;-37
2022/08/18 09:58:10;;;;;;;;;;;;;;;31.82;55.48;101504.09;5109915;28;19951;-33
2022/08/18 10:00:37;;;;;;;;;;;;;;;31.81;58.52;101516.88;5113334;28;19931;-43
2022/08/18 10:03:26;;;;;;;;;;;;;;;31.72;55.93;101516.59;5111410;28;19931;-34
2022/08/18 10:06:17;;;;;;;;;;;;;;;31.68;52.77;101513.75;5113460;28;19931;-34
2022/08/18 10:08:55;;;;;;;;;;;;;;;31.70;57.60;101502.59;5109592;28;19982;-36
2022/08/18 10:11:29;;;;;;;;;;;;;;;31.88;55.43;101507.34;5104716;28;19976;-38
2022/08/18 10:14:07;;;;;;;;;;;;;;;31.94;55.27;101502.72;5108116;28;19930;-34
2022/08/18 10:16:43;;;;;;;;;;;;;;;31.75;54.78;101495.53;5109684;28;20384;-38
2022/08/18 10:19:34;;;;;;;;;;;;;;;31.90;57.39;101499.06;5111319;28;20580;-33
2022/08/18 10:22:08;;;;;;;;;;;;;;;32.15;52.76;101499.56;5103870;28;19931;-34
2022/08/18 10:24:43;;;;;;;;;;;;;;;32.42;53.58;101480.22;5110091;28;19930;-35
2022/08/18 10:27:33;;;;;;;;;;;;;;;32.69;54.52;101486.03;5099156;28;19939;-37
2022/08/18 10:30:04;;;;;;;;;;;;;;;32.61;47.51;101493.16;5101368;28;19969;-37
2022/08/18 10:32:42;;;;;;;;;;;;;;;32.33;54.70;101491.50;5110828;28;19928;-35
2022/08/18 10:35:38;;;;;;;;;;;;;;;32.50;54.47;101493.31;5102239;28;19932;-33
2022/08/18 10:38:13;;;;;;;;;;;;;;;32.46;50.27;101486.78;5101111;28;19923;-34
2022/08/18 10:40:43;;;;;;;;;;;;;;;32.32;52.48;101481.22;5111565;28;19949;-33
2022/08/18 10:43:17;;;;;;;;;;;;;;;32.11;50.26;101478.59;5111443;28;19963;-33
2022/08/18 10:46:06;;;;;;;;;;;;;;;31.91;55.12;101478.44;5110902;28;20305;-43
2022/08/18 10:49:00;;;;;;;;;;;;;;;31.73;51.54;101483.59;5111360;28;20367;-37
2022/08/18 10:51:42;;;;;;;;;;;;;;;31.73;54.66;101483.59;5111395;28;19928;-33
2022/08/18 10:54:33;;;;;;;;;;;;;;;31.92;51.78;101485.03;5105098;28;19923;-33
2022/08/18 10:57:22;;;;;;;;;;;;;;;32.00;50.38;101475.00;5109447;28;19923;-34
2022/08/18 10:59:56;;;;;;;;;;;;;;;31.91;53.20;101484.19;5111743;28;19924;-43
2022/08/18 11:02:39;;;;;;;;;;;;;;;31.97;54.22;101484.56;5108586;28;19928;-41
2022/08/18 11:05:09;;;;;;;;;;;;;;;32.07;47.34;101487.28;5111635;28;20522;-35
2022/08/18 11:07:41;;;;;;;;;;;;;;;31.97;50.40;101481.66;5110479;28;19924;-37
2022/08/18 11:10:16;;;;;;;;;;;;;;;31.84;52.36;101484.28;5112129;28;19931;-38
2022/08/18 11:13:08;;;;;;;;;;;;;;;31.92;51.15;101480.06;5111846;28;19930;-33
2022/08/18 11:15:45;;;;;;;;;;;;;;;32.11;53.25;101493.03;5110937;28;19924;-43
2022/08/18 11:18:27;;;;;;;;;;;;;;;32.30;52.07;101483.72;5111737;28;19971;-33
2022/08/18 11:21:11;;;;;;;;;;;;;;;32.24;47.85;101479.66;5111304;28;19924;-33
2022/08/18 11:23:40;;;;;;;;;;;;;;;32.28;50.76;101480.44;5108860;28;20314;-34
2022/08/18 11:26:13;;;;;;;;;;;;;;;32.29;49.29;101482.06;5111909;28;19927;-41
2022/08/18 11:28:44;;;;;;;;;;;;;;;32.30;49.34;101477.94;5110173;28;20331;-33
2022/08/18 11:31:14;;;;;;;;;;;;;;;32.16;46.85;101481.00;5113980;28;19928;-33
2022/08/18 11:33:46;;;;;;;;;;;;;;;32.00;48.94;101477.88;5116243;28;20385;-33
2022/08/18 11:36:18;;;;;;;;;;;;;;;31.79;48.92;101476.91;5114448;28;20015;-40
2022/08/18 11:38:54;;;;;;;;;;;;;;;31.67;49.54;101477.47;5115315;28;20314;-33
2022/08/18 11:41:25;;;;;;;;;;;;;;;31.43;50.01;101476.47;5115658;28;20411;-35
2022/08/18 11:44:17;;;;;;;;;;;;;;;31.16;50.52;101479.22;5113021;28;19924;-35
2022/08/18 11:46:47;;;;;;;;;;;;;;;31.14;51.25;101475.13;5114282;28;20082;-33
2022/08/18 11:49:20;;;;;;;;;;;;;;;31.07;51.84;101475.97;5114789;28;19924;-32
2022/08/18 11:51:54;;;;;;;;;;;;;;;31.13;50.96;101476.38;5115958;28;19946;-37
2022/08/18 11:54:22;;;;;;;;;;;;;;;31.17;54.61;101475.09;5114804;28;19939;-32
2022/08/18 11:56:51;;;;;;;;;;;;;;;31.33;51.87;101470.81;5114593;28;19950;-32
2022/08/18 11:59:32;;;;;;;;;;;;;;;31.31;50.04;101467.53;5115617;28;20368;-32
2022/08/18 12:02:24;;;;;;;;;;;;;;;31.18;52.81;101482.47;5115760;28;19931;-35
2022/08/18 12:04:53;;;;;;;;;;;;;;;31.16;49.19;101473.44;5112812;28;20437;-33
2022/08/18 12:07:27;;;;;;;;;;;;;;;31.13;51.23;101479.25;5114171;28;19923;-37
2022/08/18 12:10:11;;;;;;;;;;;;;;;31.04;51.46;101476.81;5114806;28;20013;-39
2022/08/18 12:12:46;;;;;;;;;;;;;;;30.93;51.99;101473.22;5115313;28;19924;-38
2022/08/18 12:15:26;;;;;;;;;;;;;;;30.85;54.42;101477.38;5115054;28;19930;-36
2022/08/18 12:18:12;;;;;;;;;;;;;;;30.82;51.26;101481.09;5111756;28;19927;-40
2022/08/18 12:20:55;;;;;;;;;;;;;;;30.86;51.20;101472.44;5115073;28;20368;-32
2022/08/18 12:23:24;;;;;;;;;;;;;;;30.76;50.12;101475.00;5114484;28;20458;-33
2022/08/18 12:25:51;;;;;;;;;;;;;;;30.72;52.37;101470.50;5113620;28;20426;-30
2022/08/18 12:28:20;;;;;;;;;;;;;;;30.85;53.72;101474.50;5113887;28;19924;-33
2022/08/18 12:30:49;;;;;;;;;;;;;;;31.00;50.29;101473.13;5114023;28;19972;-33
2022/08/18 12:33:25;;;;;;;;;;;;;;;30.87;51.46;101465.44;5114159;28;19923;-33
2022/08/18 12:36:12;;;;;;;;;;;;;;;30.75;51.65;101461.84;5113832;28;20441;-34
2022/08/18 12:38:44;;;;;;;;;;;;;;;30.83;52.31;101456.81;5114104;28;19928;-33
2022/08/18 12:41:22;;;;;;;;;;;;;;;30.93;50.19;101453.03;5112270;28;20014;-35
2022/08/18 12:43:52;;;;;;;;;;;;;;;30.95;50.98;101450.53;5114828;28;20022;-36
2022/08/18 12:46:26;;;;;;;;;;;;;;;30.95;50.52;101450.53;5110683;28;19931;-41
2022/08/18 12:48:55;;;;;;;;;;;;;;;30.93;48.80;101446.44;5114930;28;19924;-35
2022/08/18 12:51:23;;;;;;;;;;;;;;;30.80;50.27;101437.47;5114857;28;19924;-36
2022/08/18 12:53:57;;;;;;;;;;;;;;;30.74;50.55;101444.97;5113818;28;20380;-34
2022/08/18 12:56:29;;;;;;;;;;;;;;;30.56;50.92;101445.09;5114607;28;20058;-34
2022/08/18 12:58:57;;;;;;;;;;;;;;;30.26;52.28;101441.97;5113488;28;20109;-35
2022/08/18 13:01:27;;;;;;;;;;;;;;;30.03;52.75;101439.63;5114335;28;19924;-35
2022/08/18 13:03:58;;;;;;;;;;;;;;;29.88;53.21;101435.97;5114253;28;20027;-32
2022/08/18 13:06:41;;;;;;;;;;;;;;;29.69;51.74;101424.97;5111801;28;19927;-35
2022/08/18 13:09:27;;;;;;;;;;;;;;;29.58;53.66;101433.59;5114337;28;19963;-41
2022/08/18 13:12:16;;;;;;;;;;;;;;;29.51;54.91;101427.91;5114780;28;20383;-35